Time;durP1;ratioP1;P1;durP2;ratioP2;P2;SDS_P1;SDS_P2;PMS_P1;PMS_P2;Temp;Humidity;BMP_temperature;BMP_pressure;BME280_temperature;BME280_humidity;BME280_pressure;Samples;Min_cycle;Max_cycle;Signal;HPM_P1;HPM_P2
2021/07/29 00:02:13;;;;;;;2.47;1.00;;;;;;;12.83;74.90;100113.19;5083579;28;20051;-46
2021/07/29 00:04:40;;;;;;;1.58;1.45;;;;;;;12.81;75.05;100103.63;5083381;28;20064;-44
2021/07/29 00:07:06;;;;;;;1.75;0.90;;;;;;;12.75;75.04;100103.16;5082931;28;20047;-44
2021/07/29 00:09:34;;;;;;;0.80;0.73;;;;;;;12.69;75.10;100104.63;5083940;28;20033;-44
2021/07/29 00:12:00;;;;;;;2.65;0.93;;;;;;;12.66;75.28;100101.78;5083197;28;20055;-46
2021/07/29 00:14:28;;;;;;;2.67;0.80;;;;;;;12.68;74.93;100099.47;5083731;28;20044;-44
2021/07/29 00:16:59;;;;;;;1.50;1.05;;;;;;;12.65;75.24;100100.22;5082538;28;20051;-43
2021/07/29 00:19:26;;;;;;;2.95;1.20;;;;;;;12.67;74.99;100108.97;5082915;28;20484;-44
2021/07/29 00:21:53;;;;;;;2.97;1.42;;;;;;;12.63;75.18;100091.44;5082200;28;20119;-47
2021/07/29 00:24:20;;;;;;;3.28;1.63;;;;;;;12.61;75.03;100097.38;5084344;28;20038;-46
2021/07/29 00:26:48;;;;;;;1.30;1.10;;;;;;;12.59;75.15;100099.72;5083444;28;20545;-44
2021/07/29 00:29:14;;;;;;;1.58;1.48;;;;;;;12.57;75.41;100095.72;5083361;28;20048;-46
2021/07/29 00:31:42;;;;;;;1.52;0.95;;;;;;;12.51;75.45;100092.47;5082611;28;20098;-44
2021/07/29 00:34:09;;;;;;;5.28;1.10;;;;;;;12.50;75.41;100107.50;5083244;28;20052;-44
2021/07/29 00:36:36;;;;;;;1.67;1.10;;;;;;;12.51;75.49;100100.81;5083788;28;20588;-44
2021/07/29 00:39:04;;;;;;;2.53;1.50;;;;;;;12.52;75.41;100099.59;5082343;28;20072;-48
2021/07/29 00:41:30;;;;;;;3.80;1.10;;;;;;;12.51;75.50;100092.47;5081677;28;20040;-46
2021/07/29 00:44:02;;;;;;;1.55;1.35;;;;;;;12.45;75.64;100101.47;5083126;28;20044;-44
2021/07/29 00:46:31;;;;;;;2.10;1.50;;;;;;;12.43;75.92;100096.31;5082514;28;20048;-44
2021/07/29 00:49:02;;;;;;;3.85;1.30;;;;;;;12.43;76.07;100101.06;5083371;28;20101;-47
2021/07/29 00:51:29;;;;;;;3.70;1.05;;;;;;;12.38;76.21;100099.41;5082710;28;20080;-50
2021/07/29 00:53:58;;;;;;;2.83;0.88;;;;;;;12.39;75.97;100101.00;5082811;28;20051;-48
2021/07/29 00:56:25;;;;;;;1.85;1.02;;;;;;;12.36;76.21;100101.75;5082789;28;20060;-44
2021/07/29 00:58:52;;;;;;;7.53;1.27;;;;;;;12.35;76.18;100105.69;5082726;28;20052;-45
2021/07/29 01:01:18;;;;;;;4.65;1.38;;;;;;;12.37;76.40;100097.78;5081985;28;20044;-45
2021/07/29 01:03:46;;;;;;;2.15;1.17;;;;;;;12.36;76.17;100095.41;5082812;28;20063;-48
2021/07/29 01:06:13;;;;;;;2.33;0.80;;;;;;;12.38;76.25;100093.84;5082230;28;20044;-44
2021/07/29 01:09:18;;;;;;;2.88;1.27;;;;;;;12.31;77.27;100092.94;5082828;28;20032;-47
2021/07/29 01:11:45;;;;;;;3.08;1.15;;;;;;;12.30;76.24;100089.38;5019539;28;20045;-46
2021/07/29 01:14:12;;;;;;;3.83;1.10;;;;;;;12.32;76.33;100086.22;5019404;28;20084;-50
2021/07/29 01:16:40;;;;;;;1.98;1.00;;;;;;;12.29;76.41;100095.28;5049407;28;20055;-44
2021/07/29 01:19:09;;;;;;;3.60;1.08;;;;;;;12.28;76.38;100088.94;5082482;28;20437;-46
2021/07/29 01:21:50;;;;;;;5.85;1.33;;;;;;;12.26;76.46;100096.81;5081940;28;20055;-46
2021/07/29 01:24:16;;;;;;;2.35;1.45;;;;;;;12.25;76.36;100095.25;5081887;28;20044;-44
2021/07/29 01:26:43;;;;;;;7.57;1.33;;;;;;;12.21;76.69;100094.38;5082093;28;20481;-45
2021/07/29 01:29:10;;;;;;;3.85;1.05;;;;;;;12.16;76.80;100098.25;5082797;28;20135;-43
2021/07/29 01:31:37;;;;;;;1.55;0.90;;;;;;;12.19;76.43;100091.97;5080307;28;20080;-44
2021/07/29 01:34:05;;;;;;;5.07;1.33;;;;;;;12.19;76.47;100085.63;5081992;28;20052;-49
2021/07/29 01:36:32;;;;;;;4.00;1.00;;;;;;;12.14;76.86;100088.72;5082361;28;20051;-45
2021/07/29 01:39:00;;;;;;;2.50;1.17;;;;;;;12.11;76.85;100089.44;5082994;28;20032;-47
2021/07/29 01:41:28;;;;;;;3.22;1.20;;;;;;;12.13;76.85;100087.91;5081378;28;20048;-43
2021/07/29 01:43:54;;;;;;;3.03;1.00;;;;;;;12.14;76.75;100083.16;5082142;28;20046;-44
2021/07/29 01:46:22;;;;;;;6.57;1.17;;;;;;;12.10;77.00;100082.28;5081160;28;20048;-48
2021/07/29 01:48:49;;;;;;;3.25;1.10;;;;;;;12.12;76.99;100089.09;5081991;28;20054;-44
2021/07/29 01:51:16;;;;;;;4.18;1.25;;;;;;;12.12;77.07;100093.84;5081425;28;20063;-44
2021/07/29 01:53:43;;;;;;;5.90;1.40;;;;;;;12.10;76.98;100087.84;5081947;28;20039;-47
2021/07/29 01:56:10;;;;;;;2.05;0.90;;;;;;;12.11;77.02;100092.22;5080624;28;20050;-47
2021/07/29 01:58:37;;;;;;;5.82;1.52;;;;;;;12.07;77.32;100089.38;5082581;28;20044;-44
2021/07/29 02:01:04;;;;;;;5.50;1.40;;;;;;;12.07;77.28;100094.16;5081540;28;20036;-49
2021/07/29 02:03:31;;;;;;;2.30;1.27;;;;;;;12.08;77.20;100102.09;5081524;28;20044;-47
2021/07/29 02:06:02;;;;;;;2.15;1.15;;;;;;;12.07;77.24;100102.47;5081522;28;20043;-46
2021/07/29 02:08:29;;;;;;;3.08;0.93;;;;;;;12.07;77.28;100110.78;5081839;28;20074;-44
2021/07/29 02:11:05;;;;;;;6.82;2.90;;;;;;;12.06;77.19;100098.09;5080558;28;20085;-45
2021/07/29 02:13:33;;;;;;;1.80;1.10;;;;;;;12.10;77.11;100098.94;5081683;28;20917;-45
2021/07/29 02:16:00;;;;;;;4.80;1.45;;;;;;;12.11;76.93;100101.34;5080614;28;20151;-43
2021/07/29 02:18:27;;;;;;;2.85;1.33;;;;;;;12.03;77.50;100098.81;5080799;28;20382;-43
2021/07/29 02:20:53;;;;;;;5.82;1.58;;;;;;;12.01;77.33;100112.25;5080921;28;20059;-47
2021/07/29 02:23:20;;;;;;;5.40;1.42;;;;;;;12.02;77.24;100100.00;5081815;28;20062;-43
2021/07/29 02:25:47;;;;;;;4.55;1.05;;;;;;;12.04;77.12;100108.75;5080416;28;20044;-44
2021/07/29 02:28:14;;;;;;;3.22;1.20;;;;;;;12.04;77.20;100104.00;5071705;28;20811;-43
2021/07/29 02:30:41;;;;;;;2.60;1.42;;;;;;;11.97;77.40;100100.28;5080358;28;20055;-46
2021/07/29 02:33:08;;;;;;;2.60;1.17;;;;;;;11.96;77.24;100093.16;5081428;28;20654;-50
2021/07/29 02:35:35;;;;;;;3.53;1.35;;;;;;;11.97;77.25;100100.28;5079571;28;20044;-45
2021/07/29 02:38:02;;;;;;;4.45;1.15;;;;;;;11.96;77.35;100099.50;5080754;28;20051;-45
2021/07/29 02:40:28;;;;;;;2.70;0.90;;;;;;;11.95;77.46;100109.00;5080517;28;20539;-47
2021/07/29 02:42:56;;;;;;;1.48;0.77;;;;;;;11.93;77.50;100105.81;5080731;28;20143;-44
2021/07/29 02:45:22;;;;;;;3.17;1.17;;;;;;;11.87;77.63;100096.16;5080374;28;20147;-44
2021/07/29 02:47:50;;;;;;;1.70;0.88;;;;;;;11.89;77.75;100099.38;5081088;28;20473;-46
2021/07/29 02:50:17;;;;;;;1.92;0.73;;;;;;;11.88;77.77;100096.97;5080208;28;20055;-44
2021/07/29 02:52:44;;;;;;;6.93;1.50;;;;;;;11.91;77.63;100096.25;5080703;28;20413;-43
2021/07/29 02:55:10;;;;;;;3.35;1.08;;;;;;;11.85;77.86;100103.25;5080560;28;20078;-46
2021/07/29 02:57:37;;;;;;;8.52;1.50;;;;;;;11.84;77.84;100107.19;5081240;28;20623;-52
2021/07/29 03:00:06;;;;;;;3.88;1.30;;;;;;;11.85;77.81;100108.81;5080750;28;20050;-48
2021/07/29 03:02:33;;;;;;;5.95;1.30;;;;;;;11.80;78.20;100111.88;5080826;28;20055;-44
2021/07/29 03:05:00;;;;;;;2.70;1.17;;;;;;;11.78;78.08;100114.25;5081871;28;20105;-45
2021/07/29 03:07:29;;;;;;;4.45;1.20;;;;;;;11.80;78.06;100112.69;5084635;28;20131;-45
2021/07/29 03:09:57;;;;;;;4.05;1.05;;;;;;;11.79;78.22;100110.28;5084210;28;20048;-49
2021/07/29 03:12:24;;;;;;;2.92;1.00;;;;;;;11.81;77.99;100113.50;5082965;28;20400;-45
2021/07/29 03:14:51;;;;;;;5.05;1.23;;;;;;;11.79;78.05;100121.38;5084685;28;20043;-49
2021/07/29 03:17:17;;;;;;;2.25;1.20;;;;;;;11.78;77.91;100117.00;5083828;28;20075;-46
2021/07/29 03:19:45;;;;;;;5.40;1.30;;;;;;;11.74;78.22;100103.06;5084714;28;20060;-45
2021/07/29 03:22:15;;;;;;;3.42;1.13;;;;;;;11.74;78.23;100118.91;5083754;28;20054;-44
2021/07/29 03:24:42;;;;;;;4.28;1.27;;;;;;;11.70;78.32;100112.50;5083539;28;20036;-45
2021/07/29 03:27:09;;;;;;;1.50;1.00;;;;;;;11.70;78.32;100118.03;5083819;28;20079;-44
2021/07/29 03:29:36;;;;;;;5.30;1.20;;;;;;;11.69;78.29;100121.97;5083844;28;20044;-46
2021/07/29 03:32:03;;;;;;;1.27;0.90;;;;;;;11.70;78.39;100112.50;5084214;28;20044;-45
2021/07/29 03:34:29;;;;;;;3.83;1.67;;;;;;;11.67;78.32;100115.97;5083892;28;20044;-42
2021/07/29 03:36:57;;;;;;;3.95;2.15;;;;;;;11.68;78.21;100114.78;5083412;28;20044;-44
2021/07/29 03:39:24;;;;;;;2.92;1.65;;;;;;;11.63;78.68;100110.34;5083296;28;20052;-43
2021/07/29 03:41:51;;;;;;;3.65;1.70;;;;;;;11.63;78.42;100122.25;5082967;28;20618;-49
2021/07/29 03:44:18;;;;;;;4.50;1.10;;;;;;;11.63;78.47;100113.13;5084141;28;20040;-44
2021/07/29 03:46:45;;;;;;;4.93;1.33;;;;;;;11.59;78.72;100113.06;5084249;28;20052;-45
2021/07/29 03:49:12;;;;;;;3.10;1.55;;;;;;;11.57;78.68;100120.94;5083513;28;20044;-48
2021/07/29 03:51:39;;;;;;;4.70;1.10;;;;;;;11.57;78.78;100111.81;5083861;28;20121;-48
2021/07/29 03:54:06;;;;;;;10.90;1.52;;;;;;;11.56;78.81;100113.81;5083533;28;20036;-44
2021/07/29 03:56:33;;;;;;;3.83;2.05;;;;;;;11.56;78.92;100129.63;5083355;28;20048;-45
2021/07/29 03:59:00;;;;;;;2.47;1.23;;;;;;;11.56;78.67;100133.22;5083904;28;20086;-44
2021/07/29 04:01:26;;;;;;;3.78;1.25;;;;;;;11.54;78.85;100120.88;5083853;28;20056;-44
2021/07/29 04:03:53;;;;;;;8.65;1.50;;;;;;;11.51;78.88;100114.09;5083895;28;20046;-46
2021/07/29 04:06:20;;;;;;;7.32;1.88;;;;;;;11.51;79.16;100116.06;5081614;28;20140;-45
2021/07/29 04:08:47;;;;;;;4.63;1.17;;;;;;;11.52;78.93;100126.78;5083107;28;20059;-45
2021/07/29 04:11:14;;;;;;;8.25;1.30;;;;;;;11.50;79.04;100134.66;5084871;28;20500;-45
2021/07/29 04:13:41;;;;;;;3.60;1.60;;;;;;;11.52;79.15;100128.75;5083182;28;20052;-46
2021/07/29 04:16:08;;;;;;;3.28;1.35;;;;;;;11.51;79.19;100133.50;5083725;28;20044;-45
2021/07/29 04:18:36;;;;;;;3.67;1.30;;;;;;;11.52;79.39;100135.09;5083686;28;20040;-45
2021/07/29 04:21:03;;;;;;;3.05;1.30;;;;;;;11.54;79.17;100146.63;5084079;28;20131;-48
2021/07/29 04:23:30;;;;;;;5.38;1.13;;;;;;;11.51;79.21;100144.59;5083541;28;20051;-43
2021/07/29 04:25:56;;;;;;;2.42;1.20;;;;;;;11.47;79.38;100140.94;5082677;28;20138;-47
2021/07/29 04:28:25;;;;;;;5.90;2.05;;;;;;;11.50;79.22;100137.44;5082295;28;20455;-50
2021/07/29 04:30:51;;;;;;;5.50;1.33;;;;;;;11.51;79.29;100138.25;5082484;28;20183;-43
2021/07/29 04:33:18;;;;;;;3.70;1.10;;;;;;;11.51;79.34;100139.06;5083516;28;20051;-48
2021/07/29 04:35:45;;;;;;;5.10;1.90;;;;;;;11.49;79.43;100138.59;5081661;28;20208;-44
2021/07/29 04:38:12;;;;;;;4.60;1.55;;;;;;;11.49;79.43;100130.28;5082439;28;20128;-46
2021/07/29 04:40:39;;;;;;;3.85;1.63;;;;;;;11.48;79.52;100139.78;5082784;28;20489;-45
2021/07/29 04:43:06;;;;;;;3.45;1.60;;;;;;;11.47;79.83;100138.16;5082899;28;20616;-49
2021/07/29 04:45:32;;;;;;;5.30;1.17;;;;;;;11.47;79.80;100134.59;5064947;28;20040;-46
2021/07/29 04:48:05;;;;;;;6.43;1.52;;;;;;;11.49;79.72;100135.03;5082542;28;20371;-43
2021/07/29 04:50:32;;;;;;;6.78;1.75;;;;;;;11.46;79.86;100136.56;5082138;28;20048;-44
2021/07/29 04:52:58;;;;;;;4.90;1.65;;;;;;;11.48;79.68;100133.44;5082491;28;20611;-46
2021/07/29 04:55:25;;;;;;;8.27;1.90;;;;;;;11.47;80.01;100132.63;5082758;28;20047;-46
2021/07/29 04:57:52;;;;;;;5.00;1.42;;;;;;;11.49;79.78;100135.81;5082467;28;20056;-45
2021/07/29 05:00:18;;;;;;;7.47;1.75;;;;;;;11.48;80.04;100133.44;5082073;28;20044;-43
2021/07/29 05:02:45;;;;;;;6.28;1.60;;;;;;;11.46;80.07;100136.56;5082418;28;20167;-49
2021/07/29 05:05:13;;;;;;;10.82;1.70;;;;;;;11.49;80.02;100135.03;5081300;28;20558;-46
2021/07/29 05:07:40;;;;;;;3.50;1.67;;;;;;;11.50;80.13;100134.66;5082106;28;20039;-46
2021/07/29 05:10:08;;;;;;;3.97;1.52;;;;;;;11.51;80.12;100133.50;5080032;28;20398;-43
2021/07/29 05:12:34;;;;;;;5.47;1.88;;;;;;;11.54;80.04;100138.31;5081167;28;20044;-46
2021/07/29 05:15:01;;;;;;;2.83;1.00;;;;;;;11.56;79.89;100129.63;5081549;28;20493;-43
2021/07/29 05:17:28;;;;;;;9.32;3.03;;;;;;;11.57;80.15;100136.75;5080569;28;20129;-43
2021/07/29 05:19:55;;;;;;;5.15;1.42;;;;;;;11.59;79.95;100134.44;5082114;28;20071;-45
2021/07/29 05:22:22;;;;;;;4.38;1.38;;;;;;;11.59;80.05;100140.81;5081128;28;20040;-44
2021/07/29 05:24:48;;;;;;;1.52;1.33;;;;;;;11.60;80.16;100130.50;5082164;28;20078;-45
2021/07/29 05:27:16;;;;;;;5.28;1.80;;;;;;;11.61;80.17;100144.00;5080487;28;20043;-46
2021/07/29 05:29:42;;;;;;;6.47;1.73;;;;;;;11.63;80.06;100141.66;5080841;28;20114;-46
2021/07/29 05:32:10;;;;;;;5.70;1.40;;;;;;;11.69;80.11;100149.72;5063962;28;20560;-44
2021/07/29 05:34:37;;;;;;;8.13;1.75;;;;;;;11.70;79.98;100137.47;5081284;28;20047;-46
2021/07/29 05:37:04;;;;;;;5.30;1.50;;;;;;;11.72;80.15;100135.13;5081902;28;20055;-44
2021/07/29 05:39:34;;;;;;;3.55;1.45;;;;;;;11.69;80.37;100133.88;5080246;28;20775;-47
2021/07/29 05:42:04;;;;;;;2.63;1.77;;;;;;;11.75;80.00;100131.59;5082064;28;20151;-47
2021/07/29 05:44:30;;;;;;;5.10;1.27;;;;;;;11.76;79.97;100134.00;5080742;28;20047;-44
2021/07/29 05:46:59;;;;;;;5.28;1.60;;;;;;;11.78;80.01;100139.19;5080761;28;20032;-43
2021/07/29 05:49:26;;;;;;;5.00;1.48;;;;;;;11.81;79.97;100141.25;5081555;28;20047;-48
2021/07/29 05:51:53;;;;;;;1.15;1.05;;;;;;;11.81;79.91;100135.69;5080596;28;20055;-45
2021/07/29 05:54:20;;;;;;;5.97;1.23;;;;;;;11.84;80.00;100138.50;5081720;28;20444;-43
2021/07/29 05:56:46;;;;;;;3.97;1.58;;;;;;;11.90;79.86;100144.56;5080492;28;20052;-47
2021/07/29 05:59:14;;;;;;;4.47;1.30;;;;;;;11.96;79.87;100145.88;5083740;28;20050;-45
2021/07/29 06:01:41;;;;;;;5.95;1.70;;;;;;;12.00;79.57;100141.97;5081736;28;20044;-45
2021/07/29 06:04:08;;;;;;;4.13;1.42;;;;;;;12.02;79.79;100147.94;5080949;28;20042;-44
2021/07/29 06:06:35;;;;;;;1.98;0.95;;;;;;;12.08;79.39;100145.69;5079905;28;20048;-49
2021/07/29 06:09:02;;;;;;;6.15;1.20;;;;;;;12.08;79.40;100151.22;5081242;28;20050;-44
2021/07/29 06:11:30;;;;;;;2.70;1.05;;;;;;;12.12;79.29;100149.31;5080884;28;20046;-47
2021/07/29 06:13:59;;;;;;;6.68;1.83;;;;;;;12.14;79.23;100144.19;5081675;28;20047;-44
2021/07/29 06:16:25;;;;;;;4.00;2.00;;;;;;;12.17;79.27;100143.47;5079986;28;20442;-47
2021/07/29 06:19:08;;;;;;;4.05;1.42;;;;;;;12.21;78.97;100149.88;5080933;28;20051;-44
2021/07/29 06:21:37;;;;;;;4.68;1.17;;;;;;;12.24;79.01;100149.13;5081508;28;20040;-43
2021/07/29 06:24:04;;;;;;;6.65;1.63;;;;;;;12.30;78.86;100158.75;5081540;28;20061;-46
2021/07/29 06:26:31;;;;;;;4.10;1.67;;;;;;;12.32;78.75;100145.31;5081220;28;20440;-43
2021/07/29 06:28:58;;;;;;;3.75;1.35;;;;;;;12.35;78.90;100143.75;5081047;28;20059;-45
2021/07/29 06:31:26;;;;;;;3.65;1.73;;;;;;;12.39;78.76;100150.97;5079958;28;20063;-48
2021/07/29 06:33:53;;;;;;;9.52;1.33;;;;;;;12.39;78.70;100156.50;5080127;28;20511;-49
2021/07/29 06:36:19;;;;;;;4.40;1.38;;;;;;;12.45;78.68;100159.78;5081017;28;20050;-43
2021/07/29 06:38:46;;;;;;;2.28;1.00;;;;;;;12.50;78.59;100160.28;5081190;28;20036;-47
2021/07/29 06:41:12;;;;;;;3.92;1.27;;;;;;;12.54;78.44;100174.22;5081517;28;20055;-46
2021/07/29 06:43:39;;;;;;;5.47;2.15;;;;;;;12.55;78.35;100159.94;5081529;28;20044;-44
2021/07/29 06:46:07;;;;;;;6.18;1.40;;;;;;;12.60;78.42;100167.97;5079797;28;20040;-43
2021/07/29 06:48:35;;;;;;;2.03;1.27;;;;;;;12.65;78.11;100159.34;5080658;28;20067;-49
2021/07/29 06:51:03;;;;;;;4.78;1.40;;;;;;;12.70;78.00;100172.91;5081317;28;20047;-44
2021/07/29 06:53:31;;;;;;;6.57;1.23;;;;;;;12.74;77.80;100173.75;5080956;28;20040;-47
2021/07/29 06:56:02;;;;;;;4.13;1.42;;;;;;;12.81;77.85;100175.84;5079727;28;20047;-44
2021/07/29 06:58:29;;;;;;;6.53;0.95;;;;;;;12.88;77.84;100172.34;5080205;28;20046;-49
2021/07/29 07:01:03;;;;;;;6.82;1.73;;;;;;;12.97;77.69;100175.69;5079303;28;20044;-43
2021/07/29 07:03:31;;;;;;;3.10;1.30;;;;;;;13.03;77.54;100172.19;5081358;28;20063;-43
2021/07/29 07:05:59;;;;;;;6.07;1.08;;;;;;;13.06;77.30;100179.78;5080014;28;20239;-49
2021/07/29 07:08:27;;;;;;;5.03;1.27;;;;;;;13.12;77.24;100183.88;5063843;28;20044;-46
2021/07/29 07:10:54;;;;;;;4.70;1.20;;;;;;;13.22;76.99;100179.63;5075195;28;20723;-43
2021/07/29 07:13:21;;;;;;;11.50;1.30;;;;;;;13.28;76.91;100181.72;5074371;28;20040;-44
2021/07/29 07:15:48;;;;;;;3.47;1.40;;;;;;;13.34;77.00;100182.19;5079200;28;20067;-46
2021/07/29 07:18:14;;;;;;;2.20;1.00;;;;;;;13.37;76.60;100186.97;5077577;28;20497;-47
2021/07/29 07:20:41;;;;;;;8.27;1.10;;;;;;;13.44;76.66;100184.31;5077630;28;20480;-44
2021/07/29 07:23:08;;;;;;;3.72;1.48;;;;;;;13.56;76.67;100194.34;5077180;28;20497;-44
2021/07/29 07:25:36;;;;;;;6.70;2.15;;;;;;;13.64;76.65;100199.63;5078441;28;20048;-45
2021/07/29 07:28:04;;;;;;;3.95;1.15;;;;;;;13.73;76.22;100202.94;5078180;28;20059;-46
2021/07/29 07:30:34;;;;;;;2.65;1.13;;;;;;;13.84;76.04;100201.09;5077169;28;20070;-51
2021/07/29 07:33:02;;;;;;;5.05;2.10;;;;;;;13.95;76.02;100201.97;5078715;28;20417;-47
2021/07/29 07:35:29;;;;;;;2.42;0.80;;;;;;;14.07;75.74;100211.25;5078142;28;20044;-46
2021/07/29 07:37:56;;;;;;;4.60;0.98;;;;;;;14.18;75.61;100209.38;5078473;28;20044;-48
2021/07/29 07:40:23;;;;;;;5.13;1.10;;;;;;;14.28;76.13;100217.03;5077543;28;20052;-46
2021/07/29 07:42:55;;;;;;;5.72;2.65;;;;;;;14.43;76.02;100216.81;5076781;28;20056;-45
2021/07/29 07:45:28;;;;;;;6.55;0.98;;;;;;;14.58;75.72;100220.56;5060743;28;20062;-44
2021/07/29 07:47:55;;;;;;;4.13;0.90;;;;;;;14.69;75.30;100215.06;5077738;28;20143;-47
2021/07/29 07:50:22;;;;;;;3.67;1.60;;;;;;;14.82;75.11;100231.13;5078658;28;20058;-46
2021/07/29 07:52:49;;;;;;;4.78;0.80;;;;;;;15.03;75.05;100224.88;5082368;28;20040;-47
2021/07/29 07:55:16;;;;;;;3.35;1.08;;;;;;;15.20;74.89;100235.34;5079906;28;20055;-46
2021/07/29 07:57:43;;;;;;;3.15;1.00;;;;;;;15.45;75.18;100235.50;5082235;28;20044;-45
2021/07/29 08:00:12;;;;;;;5.95;0.73;;;;;;;15.70;75.20;100237.25;5081814;28;20070;-47
2021/07/29 08:02:38;;;;;;;6.50;1.70;;;;;;;15.92;74.43;100226.97;5080265;28;20044;-46
2021/07/29 08:05:06;;;;;;;5.40;1.35;;;;;;;16.12;73.70;100236.63;5080179;28;20070;-45
2021/07/29 08:07:33;;;;;;;2.83;0.98;;;;;;;16.30;73.09;100233.88;5080397;28;20063;-51
2021/07/29 08:10:00;;;;;;;5.35;1.33;;;;;;;16.69;73.45;100239.53;5079990;28;20041;-47
2021/07/29 08:12:27;;;;;;;2.80;1.10;;;;;;;17.14;72.15;100235.13;5080039;28;20035;-46
2021/07/29 08:14:55;;;;;;;3.33;0.88;;;;;;;17.42;70.36;100241.44;5082515;28;20557;-49
2021/07/29 08:17:21;;;;;;;6.10;1.08;;;;;;;17.58;69.11;100233.44;5078502;28;20058;-45
2021/07/29 08:19:48;;;;;;;3.22;0.90;;;;;;;17.99;67.93;100235.69;5080363;28;20052;-48
2021/07/29 08:22:15;;;;;;;6.35;2.38;;;;;;;18.53;66.54;100237.00;5081491;28;20055;-44
2021/07/29 08:24:42;;;;;;;3.47;0.77;;;;;;;18.95;64.37;100239.47;5079358;28;20688;-44
2021/07/29 08:27:13;;;;;;;3.00;0.73;;;;;;;18.98;63.31;100251.88;5062858;28;20036;-46
2021/07/29 08:29:40;;;;;;;5.38;0.93;;;;;;;19.19;62.85;100252.47;5080683;28;20483;-48
2021/07/29 08:32:09;;;;;;;5.65;0.80;;;;;;;19.63;61.89;100254.44;5080353;28;20059;-47
2021/07/29 08:34:36;;;;;;;4.55;1.00;;;;;;;19.80;60.65;100250.63;5080105;28;20130;-45
2021/07/29 08:37:03;;;;;;;5.53;0.70;;;;;;;19.86;60.24;100248.94;5063238;28;20683;-45
2021/07/29 08:39:30;;;;;;;3.47;0.68;;;;;;;19.78;59.27;100255.06;5061909;28;20984;-47
2021/07/29 08:41:56;;;;;;;2.45;0.95;;;;;;;19.52;58.97;100258.56;5081624;28;20044;-45
2021/07/29 08:44:24;;;;;;;3.72;0.95;;;;;;;19.56;59.09;100260.16;5078169;28;20043;-46
2021/07/29 08:46:51;;;;;;;5.43;1.55;;;;;;;19.48;58.94;100250.22;5079390;28;20409;-45
2021/07/29 08:49:25;;;;;;;6.88;1.02;;;;;;;19.48;57.45;100255.03;5080898;28;20043;-47
2021/07/29 08:51:51;;;;;;;6.57;1.30;;;;;;;19.58;58.14;100252.09;5081366;28;20047;-47
2021/07/29 08:54:18;;;;;;;3.03;1.40;;;;;;;19.48;58.04;100258.63;5079726;28;20047;-48
2021/07/29 08:56:46;;;;;;;2.70;0.88;;;;;;;19.52;57.61;100250.97;5079652;28;20054;-47
2021/07/29 08:59:12;;;;;;;2.90;0.90;;;;;;;19.87;57.56;100253.38;5079827;28;20044;-47
2021/07/29 09:01:43;;;;;;;4.28;0.90;;;;;;;20.02;56.45;100257.59;5080283;28;20421;-44
2021/07/29 09:04:12;;;;;;;4.47;0.82;;;;;;;20.00;56.43;100260.03;5077954;28;20052;-51
2021/07/29 09:07:02;;;;;;;4.72;0.88;;;;;;;19.97;54.76;100257.25;5077501;28;20113;-47
2021/07/29 09:09:47;;;;;;;3.47;0.93;;;;;;;19.75;54.65;100255.94;5081694;28;20420;-44
2021/07/29 09:12:20;;;;;;;2.63;0.77;;;;;;;19.39;55.15;100258.31;5079160;28;20789;-47
2021/07/29 09:14:48;;;;;;;6.28;0.82;;;;;;;19.24;56.41;100254.03;5077040;28;20120;-45
2021/07/29 09:17:16;;;;;;;2.45;0.70;;;;;;;19.38;56.32;100257.50;5079342;28;20051;-46
2021/07/29 09:19:47;;;;;;;1.10;0.70;;;;;;;19.47;55.63;100261.84;5080246;28;20082;-50
2021/07/29 09:22:18;;;;;;;3.53;1.27;;;;;;;19.28;56.19;100257.59;5079311;28;20641;-46
2021/07/29 09:25:12;;;;;;;4.70;0.82;;;;;;;19.08;56.28;100253.78;5079001;28;20062;-46
2021/07/29 09:27:38;;;;;;;4.97;0.65;;;;;;;18.96;56.69;100268.31;5077844;28;20055;-48
2021/07/29 09:30:23;;;;;;;3.30;0.50;;;;;;;18.73;56.50;100264.09;5078892;28;20052;-46
2021/07/29 09:33:10;;;;;;;4.85;1.25;;;;;;;18.44;56.30;100256.25;5078825;28;20055;-44
2021/07/29 09:35:55;;;;;;;7.22;1.30;;;;;;;18.20;57.21;100258.78;5079509;28;20040;-45
2021/07/29 09:38:24;;;;;;;6.95;0.77;;;;;;;18.22;58.12;100264.78;5080258;28;20054;-48
2021/07/29 09:40:53;;;;;;;2.00;0.68;;;;;;;18.49;57.79;100265.06;5077905;28;20063;-44
2021/07/29 09:43:29;;;;;;;2.20;0.70;;;;;;;18.52;57.16;100255.81;5079545;28;20044;-45
2021/07/29 09:46:14;;;;;;;4.75;0.98;;;;;;;18.35;57.30;100253.13;5080472;28;20043;-46
2021/07/29 09:48:45;;;;;;;3.47;1.00;;;;;;;18.18;57.77;100260.41;5079374;28;20040;-43
2021/07/29 09:51:15;;;;;;;4.85;0.80;;;;;;;18.17;57.90;100270.00;5074936;28;20044;-47
2021/07/29 09:53:41;;;;;;;3.33;0.50;;;;;;;18.21;58.00;100265.97;5078409;28;20417;-44
2021/07/29 09:56:11;;;;;;;4.22;0.65;;;;;;;18.23;57.89;100262.78;5078223;28;20048;-46
2021/07/29 09:58:57;;;;;;;2.15;0.68;;;;;;;18.26;57.64;100250.75;5077750;28;20039;-48
2021/07/29 10:01:25;;;;;;;2.85;1.20;;;;;;;18.42;57.43;100251.06;5078576;28;20036;-50
2021/07/29 10:03:53;;;;;;;2.70;0.77;;;;;;;18.73;57.58;100252.06;5078394;28;20521;-48
2021/07/29 10:06:22;;;;;;;3.05;0.63;;;;;;;19.00;56.91;100247.44;5077425;28;20150;-45
2021/07/29 10:08:55;;;;;;;5.38;0.70;;;;;;;19.18;56.04;100256.50;5076282;28;20043;-49
2021/07/29 10:11:26;;;;;;;4.20;1.10;;;;;;;19.39;56.28;100255.50;5078030;28;20051;-47
2021/07/29 10:14:00;;;;;;;2.53;0.70;;;;;;;19.55;55.99;100252.13;5077868;28;20044;-46
2021/07/29 10:16:50;;;;;;;2.72;0.85;;;;;;;19.75;54.41;100256.69;5077067;28;20051;-45
2021/07/29 10:19:18;;;;;;;2.22;0.70;;;;;;;19.71;55.77;100261.59;5077466;28;20032;-45
2021/07/29 10:21:45;;;;;;;3.15;0.60;;;;;;;19.63;55.03;100264.88;5077836;28;20347;-46
2021/07/29 10:24:13;;;;;;;6.80;2.08;;;;;;;19.56;54.86;100260.16;5077098;28;20051;-51
2021/07/29 10:26:58;;;;;;;3.45;0.52;;;;;;;19.73;54.02;100270.38;5077000;28;20051;-47
2021/07/29 10:29:30;;;;;;;4.07;0.85;;;;;;;19.77;53.79;100271.16;5076017;28;20044;-50
2021/07/29 10:32:11;;;;;;;2.05;0.77;;;;;;;19.54;54.09;100256.94;5077334;28;20043;-47
2021/07/29 10:34:39;;;;;;;2.67;1.40;;;;;;;19.39;54.45;100269.53;5077111;28;20063;-45
2021/07/29 10:37:09;;;;;;;2.80;0.55;;;;;;;19.63;54.06;100267.69;5078219;28;20054;-46
2021/07/29 10:39:59;;;;;;;3.53;0.80;;;;;;;19.63;53.46;100271.31;5078908;28;20036;-49
2021/07/29 10:42:27;;;;;;;2.30;0.85;;;;;;;19.55;54.47;100264.16;5077398;28;20054;-46
2021/07/29 10:44:54;;;;;;;3.92;0.80;;;;;;;19.51;54.51;100266.22;5076773;28;20182;-46
2021/07/29 10:47:35;;;;;;;1.02;0.60;;;;;;;19.62;53.79;100264.06;5076013;28;20036;-46
2021/07/29 10:50:03;;;;;;;2.13;0.60;;;;;;;19.78;54.21;100271.91;5078337;28;20040;-46
2021/07/29 10:52:30;;;;;;;2.03;1.05;;;;;;;19.78;54.38;100255.06;5076739;28;20050;-46
2021/07/29 10:55:00;;;;;;;6.90;2.05;;;;;;;19.81;53.52;100259.84;5076754;28;20469;-47
2021/07/29 10:57:28;;;;;;;3.97;0.77;;;;;;;19.83;53.72;100261.03;5078110;28;20047;-47
2021/07/29 10:59:54;;;;;;;0.93;0.55;;;;;;;19.88;53.45;100266.19;5079075;28;21543;-48
2021/07/29 11:02:43;;;;;;;3.55;0.63;;;;;;;19.94;53.17;100270.13;5077015;28;20159;-49
2021/07/29 11:05:15;;;;;;;2.65;0.88;;;;;;;20.00;53.57;100257.22;5077399;28;20047;-46
2021/07/29 11:07:42;;;;;;;2.88;0.73;;;;;;;20.14;53.19;100263.88;5078839;28;20146;-46
2021/07/29 11:10:30;;;;;;;2.47;0.80;;;;;;;20.16;51.16;100253.78;5077376;28;20097;-47
2021/07/29 11:12:57;;;;;;;1.38;0.60;;;;;;;20.32;52.99;100258.81;5077741;28;20048;-49
2021/07/29 11:15:26;;;;;;;2.03;0.70;;;;;;;20.30;52.79;100266.91;5078091;28;20052;-44
2021/07/29 11:17:53;;;;;;;2.40;0.77;;;;;;;20.34;52.56;100267.63;5052552;28;20370;-44
2021/07/29 11:20:28;;;;;;;7.22;1.75;;;;;;;20.23;50.20;100261.31;5077078;28;20055;-46
2021/07/29 11:22:55;;;;;;;4.00;0.55;;;;;;;20.31;52.23;100257.22;5077744;28;20047;-47
2021/07/29 11:25:22;;;;;;;3.33;0.60;;;;;;;20.49;52.16;100252.94;5077052;28;20048;-49
2021/07/29 11:27:49;;;;;;;1.98;0.70;;;;;;;20.59;51.89;100246.38;5081802;28;20048;-45
2021/07/29 11:30:16;;;;;;;2.45;0.57;;;;;;;20.74;52.29;100258.19;5079328;28;20052;-46
2021/07/29 11:32:45;;;;;;;2.28;0.50;;;;;;;20.75;51.51;100259.78;5080087;28;20106;-44